Time;durP1;ratioP1;P1;durP2;ratioP2;P2;SDS_P1;SDS_P2;PMS_P1;PMS_P2;Temp;Humidity;BMP_temperature;BMP_pressure;BME280_temperature;BME280_humidity;BME280_pressure;Samples;Min_cycle;Max_cycle;Signal;HPM_P1;HPM_P2
2023/10/22 00:00:22;;;;;;;0.77;0.57;;;9.30;1.00;;;;;;5105740;28;20240;-78
2023/10/22 00:02:49;;;;;;;0.30;0.30;;;9.30;1.00;;;;;;5073161;28;20113;-78
2023/10/22 00:05:15;;;;;;;0.47;0.32;;;9.20;1.00;;;;;;5107131;28;20044;-78
2023/10/22 00:07:42;;;;;;;0.30;0.30;;;9.20;1.00;;;;;;5088806;28;20325;-77
2023/10/22 00:10:09;;;;;;;0.30;0.30;;;9.20;1.00;;;;;;5104938;28;20105;-77
2023/10/22 00:12:36;;;;;;;0.38;0.30;;;9.10;1.00;;;;;;5071358;28;20385;-77
2023/10/22 00:15:03;;;;;;;0.40;0.40;;;9.10;1.00;;;;;;5105363;28;20131;-78
2023/10/22 00:17:30;;;;;;;0.43;0.43;;;9.10;1.00;;;;;;5088439;28;20059;-78
2023/10/22 00:19:57;;;;;;;0.43;0.30;;;9.10;99.90;;;;;;5088563;28;20144;-78
2023/10/22 00:22:24;;;;;;;0.30;0.30;;;9.10;1.00;;;;;;5089120;28;20047;-78
2023/10/22 00:24:51;;;;;;;0.70;0.40;;;9.00;99.90;;;;;;5084533;28;20047;-78
2023/10/22 00:27:18;;;;;;;0.45;0.40;;;9.00;99.90;;;;;;5085289;28;20059;-77
2023/10/22 00:29:45;;;;;;;0.17;0.17;;;9.00;99.90;;;;;;5103350;28;20100;-78
2023/10/22 00:32:12;;;;;;;0.50;0.50;;;9.00;99.90;;;;;;5088189;28;20085;-78
2023/10/22 00:34:39;;;;;;;0.28;0.20;;;9.00;99.90;;;;;;5087862;28;20047;-77
2023/10/22 00:37:07;;;;;;;0.32;0.30;;;8.90;99.90;;;;;;5106069;28;20205;-77
2023/10/22 00:39:33;;;;;;;0.52;0.32;;;8.90;99.90;;;;;;5103965;28;20055;-77
2023/10/22 00:42:00;;;;;;;0.28;0.28;;;8.90;99.90;;;;;;5087868;28;20514;-78
2023/10/22 00:44:27;;;;;;;0.22;0.22;;;8.90;1.00;;;;;;5071134;28;20048;-77
2023/10/22 00:46:54;;;;;;;0.70;0.52;;;8.90;1.00;;;;;;5087952;28;20111;-78
2023/10/22 00:49:21;;;;;;;0.40;0.40;;;8.80;99.90;;;;;;5087953;28;20143;-77
2023/10/22 00:51:50;;;;;;;0.50;0.30;;;8.80;99.90;;;;;;5087823;28;20518;-77
2023/10/22 00:54:17;;;;;;;0.30;0.30;;;8.70;99.90;;;;;;5087967;28;20088;-78
2023/10/22 00:56:44;;;;;;;0.95;0.50;;;8.70;99.90;;;;;;5087279;28;20049;-77
2023/10/22 00:59:11;;;;;;;0.38;0.38;;;8.70;99.90;;;;;;5087656;28;20496;-77
2023/10/22 01:01:38;;;;;;;0.40;0.38;;;8.70;99.90;;;;;;5070489;28;20048;-78
2023/10/22 01:04:05;;;;;;;0.40;0.40;;;8.70;99.90;;;;;;5084262;28;20124;-77
2023/10/22 01:06:33;;;;;;;0.20;0.20;;;8.70;99.90;;;;;;5084253;28;20764;-77
2023/10/22 01:09:00;;;;;;;0.38;0.38;;;8.70;1.00;;;;;;5103990;28;20230;-77
2023/10/22 01:11:27;;;;;;;0.50;0.30;;;8.60;1.00;;;;;;5103763;28;20071;-78
2023/10/22 01:13:55;;;;;;;0.38;0.38;;;8.60;1.00;;;;;;5104320;28;20048;-77
2023/10/22 01:16:22;;;;;;;0.32;0.25;;;8.60;1.00;;;;;;5104163;28;20536;-78
2023/10/22 01:18:49;;;;;;;0.20;0.20;;;8.60;1.00;;;;;;5086927;28;20065;-78
2023/10/22 01:21:16;;;;;;;0.28;0.28;;;8.60;1.00;;;;;;5071175;28;20093;-77
2023/10/22 01:23:43;;;;;;;0.30;0.30;;;8.60;1.00;;;;;;5087185;28;20052;-78
2023/10/22 01:26:10;;;;;;;0.30;0.30;;;8.50;1.00;;;;;;5103496;28;20067;-78
2023/10/22 01:28:37;;;;;;;0.30;0.30;;;8.60;43.20;;;;;;5073501;28;20059;-78
2023/10/22 01:31:04;;;;;;;0.30;0.30;;;8.50;77.60;;;;;;5086144;28;20047;-78
2023/10/22 01:33:32;;;;;;;0.35;0.30;;;8.60;92.00;;;;;;5079146;28;20127;-78
2023/10/22 01:35:59;;;;;;;0.30;0.30;;;8.60;78.20;;;;;;5103039;28;20378;-77
2023/10/22 01:38:26;;;;;;;0.28;0.28;;;8.60;99.90;;;;;;5086999;28;20058;-77
2023/10/22 01:40:53;;;;;;;0.30;0.30;;;8.70;87.40;;;;;;5072159;28;20104;-78
2023/10/22 01:43:20;;;;;;;0.30;0.30;;;8.70;90.10;;;;;;5089048;28;20047;-78
2023/10/22 01:45:47;;;;;;;0.22;0.22;;;8.80;19.30;;;;;;5065782;28;20052;-78
2023/10/22 01:48:14;;;;;;;0.65;0.38;;;8.80;1.00;;;;;;5069477;28;20052;-77
2023/10/22 01:50:41;;;;;;;0.30;0.30;;;8.90;1.00;;;;;;5104337;28;20047;-78
2023/10/22 01:53:08;;;;;;;0.25;0.25;;;8.90;1.00;;;;;;5087152;28;20050;-78
2023/10/22 01:55:35;;;;;;;0.30;0.20;;;9.00;1.00;;;;;;5105722;28;20100;-78
2023/10/22 01:58:02;;;;;;;0.22;0.20;;;9.00;99.90;;;;;;5103830;28;20055;-78
2023/10/22 02:00:30;;;;;;;0.17;0.17;;;9.00;99.90;;;;;;5087087;28;20140;-78
2023/10/22 02:02:57;;;;;;;0.85;0.30;;;9.10;99.90;;;;;;5071136;28;20054;-78
2023/10/22 02:05:24;;;;;;;0.15;0.15;;;9.10;99.90;;;;;;5087710;28;20067;-78
2023/10/22 02:07:51;;;;;;;0.20;0.20;;;9.20;99.90;;;;;;5103771;28;20101;-78
2023/10/22 02:10:20;;;;;;;0.47;0.30;;;9.20;99.90;;;;;;5103488;28;20051;-79
2023/10/22 02:12:47;;;;;;;0.20;0.20;;;9.20;99.90;;;;;;5103797;28;20138;-78
2023/10/22 02:15:14;;;;;;;0.15;0.10;;;9.20;99.90;;;;;;5070905;28;20405;-78
2023/10/22 02:17:41;;;;;;;0.20;0.20;;;9.30;1.00;;;;;;5070485;28;20531;-78
2023/10/22 02:20:09;;;;;;;0.25;0.25;;;9.30;1.00;;;;;;5087208;28;20055;-78
2023/10/22 02:22:39;;;;;;;0.20;0.20;;;9.30;1.00;;;;;;5070788;28;20109;-78
2023/10/22 02:25:06;;;;;;;0.40;0.30;;;9.30;1.00;;;;;;5085806;28;20423;-78
2023/10/22 02:27:33;;;;;;;0.55;0.30;;;9.20;99.90;;;;;;5086642;28;20422;-78
2023/10/22 02:30:00;;;;;;;0.45;0.20;;;9.20;99.90;;;;;;5070597;28;20052;-78
2023/10/22 02:32:27;;;;;;;0.20;0.20;;;9.10;99.90;;;;;;5070381;28;20058;-78
2023/10/22 02:34:54;;;;;;;0.40;0.40;;;9.10;99.90;;;;;;5086467;28;20222;-78
2023/10/22 02:37:21;;;;;;;0.10;0.10;;;9.10;99.90;;;;;;5087178;28;20055;-78
2023/10/22 02:39:48;;;;;;;0.43;0.28;;;9.00;1.00;;;;;;5085973;28;20055;-78
2023/10/22 02:42:14;;;;;;;0.20;0.20;;;9.00;1.00;;;;;;5070301;28;20515;-78
2023/10/22 02:44:43;;;;;;;0.20;0.20;;;9.00;1.00;;;;;;5103297;28;20158;-78
2023/10/22 02:47:10;;;;;;;0.28;0.28;;;9.00;1.00;;;;;;5103794;28;20071;-78
2023/10/22 02:49:37;;;;;;;0.20;0.20;;;8.90;24.20;;;;;;5087308;28;20051;-79
2023/10/22 02:52:05;;;;;;;0.20;0.20;;;9.00;53.00;;;;;;5070640;28;20112;-78
2023/10/22 02:54:31;;;;;;;0.20;0.20;;;8.90;99.90;;;;;;5069155;28;20112;-78
2023/10/22 02:56:59;;;;;;;0.20;0.20;;;8.90;99.90;;;;;;5086667;28;20047;-78
2023/10/22 02:59:26;;;;;;;0.20;0.20;;;8.80;91.10;;;;;;5104496;28;20051;-78
2023/10/22 03:01:54;;;;;;;0.20;0.20;;;8.80;71.90;;;;;;5068653;28;20111;-78
2023/10/22 03:04:20;;;;;;;0.30;0.20;;;8.70;38.80;;;;;;5099247;28;20460;-78
2023/10/22 03:06:47;;;;;;;0.20;0.20;;;8.60;16.70;;;;;;5088645;28;20473;-78
2023/10/22 03:09:14;;;;;;;0.15;0.15;;;8.60;91.90;;;;;;5071130;28;20048;-78
2023/10/22 03:11:42;;;;;;;0.13;0.13;;;8.60;86.30;;;;;;5087863;28;20449;-78
2023/10/22 03:14:09;;;;;;;0.30;0.30;;;8.50;99.90;;;;;;5088365;28;20047;-78
2023/10/22 03:16:35;;;;;;;0.30;0.30;;;8.50;99.90;;;;;;5088971;28;20054;-78
2023/10/22 03:19:02;;;;;;;0.10;0.10;;;8.40;99.90;;;;;;5088233;28;20051;-78
2023/10/22 03:21:35;;;;;;;0.55;0.30;;;8.40;99.90;;;;;;5088355;28;20493;-78
2023/10/22 03:24:03;;;;;;;0.30;0.30;;;8.40;99.90;;;;;;5104588;28;20051;-78
2023/10/22 03:26:31;;;;;;;0.25;0.25;;;8.30;99.90;;;;;;5087894;28;20064;-77
2023/10/22 03:28:58;;;;;;;0.20;0.20;;;8.30;99.90;;;;;;5088247;28;20056;-78
2023/10/22 03:31:24;;;;;;;0.20;0.20;;;8.30;99.90;;;;;;5071519;28;20047;-78
2023/10/22 03:33:51;;;;;;;0.52;0.25;;;8.30;99.90;;;;;;5088402;28;20052;-79
2023/10/22 03:36:18;;;;;;;0.10;0.10;;;8.30;99.90;;;;;;5098324;28;20071;-78
2023/10/22 03:38:45;;;;;;;0.20;0.20;;;8.30;99.90;;;;;;5087253;28;20051;-78
2023/10/22 03:41:12;;;;;;;0.38;0.30;;;8.40;99.90;;;;;;5069868;28;20613;-78
2023/10/22 03:43:38;;;;;;;0.28;0.28;;;8.40;99.90;;;;;;5070815;28;20197;-78
2023/10/22 03:46:05;;;;;;;0.20;0.20;;;8.40;99.90;;;;;;5070922;28;20047;-78
2023/10/22 03:48:33;;;;;;;0.52;0.30;;;8.30;99.90;;;;;;5105343;28;20513;-78
2023/10/22 03:51:00;;;;;;;0.35;0.20;;;8.30;99.90;;;;;;5106012;28;20141;-78
2023/10/22 03:53:27;;;;;;;0.30;0.30;;;8.30;99.90;;;;;;5087324;28;20942;-78
2023/10/22 03:55:54;;;;;;;0.25;0.20;;;8.20;99.90;;;;;;5087364;28;20046;-78
2023/10/22 03:58:21;;;;;;;0.20;0.20;;;8.20;99.90;;;;;;5087554;28;20051;-78
2023/10/22 04:00:50;;;;;;;0.22;0.20;;;8.20;99.90;;;;;;5087577;28;20146;-78
2023/10/22 04:03:17;;;;;;;0.70;0.30;;;8.10;99.90;;;;;;5087955;28;20098;-78
2023/10/22 04:05:44;;;;;;;0.15;0.15;;;8.10;99.90;;;;;;5087763;28;20044;-78
2023/10/22 04:08:11;;;;;;;0.20;0.20;;;8.00;99.90;;;;;;5087559;28;20075;-77
2023/10/22 04:10:38;;;;;;;0.10;0.10;;;8.00;92.70;;;;;;5069662;28;20044;-78
2023/10/22 04:13:05;;;;;;;0.10;0.10;;;7.90;91.60;;;;;;5069596;28;20052;-77
2023/10/22 04:15:37;;;;;;;0.17;0.17;;;7.80;99.90;;;;;;5087510;28;20108;-77
2023/10/22 04:18:03;;;;;;;0.20;0.20;;;7.80;99.90;;;;;;5104038;28;20124;-78
2023/10/22 04:20:33;;;;;;;0.28;0.25;;;7.80;99.90;;;;;;5103488;28;20115;-78
2023/10/22 04:23:00;;;;;;;0.22;0.20;;;7.80;99.90;;;;;;5087247;28;20150;-78
2023/10/22 04:25:30;;;;;;;0.20;0.20;;;7.80;99.90;;;;;;5103076;28;20052;-78
2023/10/22 04:27:57;;;;;;;0.20;0.20;;;7.80;99.90;;;;;;5087571;28;20082;-78
2023/10/22 04:30:25;;;;;;;0.10;0.10;;;7.70;99.90;;;;;;5087518;28;20120;-78
2023/10/22 04:32:52;;;;;;;0.20;0.20;;;7.60;99.90;;;;;;5087194;28;20055;-77
2023/10/22 04:35:19;;;;;;;0.20;0.20;;;7.60;99.90;;;;;;5103627;28;20146;-78
2023/10/22 04:37:46;;;;;;;0.20;0.20;;;7.60;99.90;;;;;;5086812;28;20104;-78
2023/10/22 04:40:13;;;;;;;0.20;0.20;;;7.60;99.90;;;;;;5085801;28;20382;-78
2023/10/22 04:42:40;;;;;;;0.40;0.30;;;7.60;99.90;;;;;;5104476;28;20066;-77
2023/10/22 04:45:09;;;;;;;0.28;0.20;;;7.60;99.90;;;;;;5103838;28;20059;-78
2023/10/22 04:47:35;;;;;;;0.10;0.10;;;7.60;99.90;;;;;;5103441;28;20431;-78
2023/10/22 04:50:02;;;;;;;0.20;0.20;;;7.50;99.90;;;;;;5104102;28;20047;-78
2023/10/22 04:52:33;;;;;;;0.10;0.10;;;7.50;99.90;;;;;;5070167;28;20132;-77
2023/10/22 04:55:00;;;;;;;0.10;0.10;;;7.50;99.90;;;;;;5085836;28;20061;-79
2023/10/22 04:57:27;;;;;;;0.20;0.20;;;7.50;99.90;;;;;;5069599;28;20044;-78
2023/10/22 04:59:55;;;;;;;0.10;0.10;;;7.40;99.90;;;;;;5103489;28;20039;-78
2023/10/22 05:02:22;;;;;;;0.13;0.13;;;7.40;99.90;;;;;;5084000;28;20048;-78
2023/10/22 05:04:51;;;;;;;0.25;0.25;;;7.30;99.90;;;;;;5079818;28;20048;-78
2023/10/22 05:07:17;;;;;;;0.47;0.22;;;7.30;99.90;;;;;;5085061;28;20638;-77
2023/10/22 05:09:44;;;;;;;0.20;0.20;;;7.20;99.90;;;;;;5066738;28;20424;-78
2023/10/22 05:12:11;;;;;;;0.10;0.10;;;7.20;99.90;;;;;;5084276;28;20522;-78
2023/10/22 05:14:38;;;;;;;0.10;0.10;;;7.10;99.90;;;;;;5083939;28;20093;-78
2023/10/22 05:17:06;;;;;;;0.20;0.20;;;7.10;99.90;;;;;;5084348;28;20059;-78
2023/10/22 05:19:34;;;;;;;0.20;0.20;;;7.10;99.90;;;;;;5084630;28;20071;-78
2023/10/22 05:22:01;;;;;;;0.15;0.15;;;7.10;99.90;;;;;;5084154;28;20055;-78
2023/10/22 05:24:28;;;;;;;0.30;0.30;;;7.00;99.90;;;;;;5066601;28;20051;-77
2023/10/22 05:26:55;;;;;;;0.30;0.30;;;7.00;99.90;;;;;;5100855;28;20052;-78
2023/10/22 05:29:22;;;;;;;0.32;0.32;;;7.00;99.90;;;;;;5067532;28;20355;-78
2023/10/22 05:31:52;;;;;;;0.20;0.20;;;7.00;99.90;;;;;;5083900;28;20044;-78
2023/10/22 05:34:19;;;;;;;0.30;0.30;;;7.00;99.90;;;;;;5084294;28;20844;-78
2023/10/22 05:36:45;;;;;;;0.10;0.10;;;6.90;99.90;;;;;;5084220;28;20413;-78
2023/10/22 05:39:12;;;;;;;0.45;0.20;;;6.90;99.90;;;;;;5100191;28;20214;-78
2023/10/22 05:41:39;;;;;;;0.30;0.30;;;6.90;99.90;;;;;;5082703;28;20074;-77
2023/10/22 05:44:08;;;;;;;0.30;0.30;;;6.90;99.90;;;;;;5100951;28;20086;-78
2023/10/22 05:46:35;;;;;;;0.40;0.30;;;6.90;99.90;;;;;;5102221;28;20050;-77
2023/10/22 05:49:03;;;;;;;0.30;0.30;;;6.80;99.90;;;;;;5084420;28;20590;-78
2023/10/22 05:51:30;;;;;;;0.20;0.20;;;6.80;99.90;;;;;;5100544;28;20392;-77
2023/10/22 05:53:57;;;;;;;0.20;0.20;;;6.70;99.90;;;;;;5066517;28;20420;-78
2023/10/22 05:56:26;;;;;;;0.30;0.30;;;6.70;99.90;;;;;;5083256;28;20112;-78
2023/10/22 05:58:53;;;;;;;0.20;0.20;;;6.60;99.90;;;;;;5100437;28;20059;-77
2023/10/22 06:01:20;;;;;;;0.40;0.40;;;6.60;99.90;;;;;;5083725;28;20096;-77
2023/10/22 06:03:47;;;;;;;0.50;0.40;;;6.60;99.90;;;;;;5083981;28;20189;-77
2023/10/22 06:06:20;;;;;;;0.30;0.28;;;6.60;99.90;;;;;;5101543;28;20044;-77
2023/10/22 06:08:47;;;;;;;;;;;6.60;99.90;;;;;;5065432;28;20532;-77
2023/10/22 06:11:14;;;;;;;0.57;0.45;;;6.60;99.90;;;;;;5089453;28;19919;-77
2023/10/22 06:13:41;;;;;;;0.17;0.17;;;6.60;99.90;;;;;;5099725;28;20043;-77
2023/10/22 06:16:09;;;;;;;0.30;0.30;;;6.60;99.90;;;;;;5071046;28;20070;-77
2023/10/22 06:18:37;;;;;;;0.30;0.30;;;6.60;99.90;;;;;;5078608;28;20540;-77
2023/10/22 06:21:14;;;;;;;0.20;0.20;;;6.50;99.90;;;;;;5087996;28;20104;-77
2023/10/22 06:23:42;;;;;;;0.47;0.45;;;6.50;99.90;;;;;;5092406;28;20501;-77
2023/10/22 06:26:10;;;;;;;0.43;0.30;;;6.50;99.90;;;;;;5099673;28;20481;-77
2023/10/22 06:28:41;;;;;;;0.50;0.30;;;6.50;99.90;;;;;;5082612;28;20139;-77
2023/10/22 06:31:12;;;;;;;0.43;0.35;;;6.50;99.90;;;;;;5086643;28;20067;-77
2023/10/22 06:33:40;;;;;;;0.20;0.20;;;6.50;99.90;;;;;;5101175;28;20373;-77
2023/10/22 06:36:17;;;;;;;0.50;0.40;;;6.50;99.90;;;;;;5103665;28;20040;-77
2023/10/22 06:38:46;;;;;;;0.30;0.30;;;6.50;99.90;;;;;;5103892;28;20039;-75
2023/10/22 06:41:22;;;;;;;0.40;0.40;;;6.50;99.90;;;;;;5086461;28;20051;-75
2023/10/22 06:43:50;;;;;;;0.40;0.30;;;6.50;99.90;;;;;;5085724;28;20139;-75
2023/10/22 06:46:19;;;;;;;0.30;0.30;;;6.50;99.90;;;;;;5087471;28;20051;-76
2023/10/22 06:48:47;;;;;;;0.30;0.30;;;6.60;99.90;;;;;;5069690;28;20117;-75
2023/10/22 06:51:18;;;;;;;0.28;0.25;;;6.60;99.90;;;;;;5070107;28;20044;-76
2023/10/22 06:53:46;;;;;;;0.57;0.40;;;6.60;99.90;;;;;;5062940;28;20139;-75
2023/10/22 06:56:14;;;;;;;0.40;0.40;;;6.60;99.90;;;;;;5079771;28;20104;-76
2023/10/22 06:58:41;;;;;;;0.68;0.57;;;6.70;99.90;;;;;;5100882;28;20051;-76
2023/10/22 07:01:09;;;;;;;0.40;0.30;;;6.80;99.90;;;;;;5102890;28;20473;-76
2023/10/22 07:03:41;;;;;;;0.70;0.50;;;6.80;99.90;;;;;;5081250;28;20051;-75
2023/10/22 07:06:09;;;;;;;0.68;0.40;;;6.90;99.90;;;;;;5100619;28;20505;-75
2023/10/22 07:08:36;;;;;;;0.45;0.40;;;7.00;99.90;;;;;;5080233;28;20063;-74
2023/10/22 07:11:03;;;;;;;0.55;0.43;;;7.10;99.90;;;;;;5080408;28;20216;-74
2023/10/22 07:13:29;;;;;;;0.35;0.35;;;7.10;99.90;;;;;;5102425;28;20047;-75
2023/10/22 07:15:56;;;;;;;0.32;0.30;;;7.10;99.90;;;;;;5086239;28;20127;-75
2023/10/22 07:18:23;;;;;;;0.35;0.35;;;7.20;99.90;;;;;;5101262;28;20429;-76
2023/10/22 07:20:50;;;;;;;0.40;0.22;;;7.20;99.90;;;;;;5099172;28;20155;-75
2023/10/22 07:23:17;;;;;;;0.22;0.22;;;7.20;99.90;;;;;;5085012;28;20047;-75
2023/10/22 07:25:44;;;;;;;0.63;0.43;;;7.30;99.90;;;;;;5066861;28;20056;-75
2023/10/22 07:28:15;;;;;;;0.32;0.32;;;7.30;99.90;;;;;;5069442;28;20667;-75
2023/10/22 07:30:47;;;;;;;0.50;0.30;;;7.30;99.90;;;;;;5070824;28;20058;-76
2023/10/22 07:33:15;;;;;;;0.25;0.20;;;7.30;99.90;;;;;;5068876;28;20044;-76
2023/10/22 07:35:55;;;;;;;0.30;0.30;;;7.40;99.90;;;;;;5086827;28;20112;-77
2023/10/22 07:38:23;;;;;;;0.75;0.50;;;7.40;99.90;;;;;;5103872;28;20044;-73
2023/10/22 07:40:55;;;;;;;0.30;0.30;;;7.40;99.90;;;;;;5103444;28;20440;-73
2023/10/22 07:43:24;;;;;;;0.20;0.20;;;7.40;99.90;;;;;;5086629;28;20051;-73
2023/10/22 07:45:51;;;;;;;0.30;0.30;;;7.40;99.90;;;;;;5103134;28;20043;-73
2023/10/22 07:48:18;;;;;;;0.38;0.30;;;7.40;99.90;;;;;;5104166;28;20101;-73
2023/10/22 07:50:46;;;;;;;0.47;0.35;;;7.40;99.90;;;;;;5103574;28;20101;-73
2023/10/22 07:53:13;;;;;;;0.22;0.22;;;7.50;99.90;;;;;;5103736;28;20138;-72
2023/10/22 07:55:42;;;;;;;0.80;0.35;;;7.50;99.90;;;;;;5103793;28;20548;-73
2023/10/22 07:58:09;;;;;;;0.30;0.30;;;7.50;99.90;;;;;;5098682;28;20051;-73
2023/10/22 08:00:35;;;;;;;0.30;0.30;;;7.60;99.90;;;;;;5082213;28;20044;-73
2023/10/22 08:03:02;;;;;;;0.63;0.43;;;7.60;99.90;;;;;;5084993;28;20044;-73
2023/10/22 08:05:31;;;;;;;0.52;0.40;;;7.70;99.90;;;;;;5068223;28;20053;-73
2023/10/22 08:07:58;;;;;;;0.40;0.30;;;7.70;99.90;;;;;;5103562;27;20043;-73
2023/10/22 08:10:25;;;;;;;0.60;0.50;;;7.80;99.90;;;;;;5101677;28;20051;-73
2023/10/22 08:12:51;;;;;;;0.45;0.32;;;7.80;99.90;;;;;;5099103;28;20477;-73
2023/10/22 08:15:18;;;;;;;0.43;0.38;;;7.90;99.90;;;;;;5085534;28;20393;-73
2023/10/22 08:17:45;;;;;;;0.68;0.40;;;8.00;99.90;;;;;;5103921;28;20344;-73
2023/10/22 08:20:14;;;;;;;0.52;0.40;;;8.00;99.90;;;;;;5104053;28;20536;-73
2023/10/22 08:22:41;;;;;;;0.20;0.20;;;8.10;99.90;;;;;;5084966;28;20489;-75
2023/10/22 08:25:09;;;;;;;0.28;0.28;;;8.10;99.90;;;;;;5102051;28;20039;-85
2023/10/22 08:27:36;;;;;;;0.20;0.20;;;8.20;99.90;;;;;;5082182;28;20170;-75
2023/10/22 08:30:03;;;;;;;0.38;0.38;;;8.30;99.90;;;;;;5071795;28;20367;-75
2023/10/22 08:32:33;;;;;;;0.52;0.30;;;8.30;99.90;;;;;;5067975;28;20109;-76
2023/10/22 08:35:02;;;;;;;0.60;0.40;;;8.40;99.90;;;;;;5085043;28;20051;-75
2023/10/22 08:37:29;;;;;;;0.20;0.20;;;8.50;99.90;;;;;;5101869;28;20047;-75
2023/10/22 08:39:56;;;;;;;0.30;0.30;;;8.60;99.90;;;;;;5084228;28;20136;-75
2023/10/22 08:42:24;;;;;;;0.20;0.20;;;8.70;99.90;;;;;;5084884;28;20051;-84
2023/10/22 08:44:52;;;;;;;0.15;0.15;;;8.80;99.90;;;;;;5068533;28;20112;-76
2023/10/22 08:47:19;;;;;;;0.20;0.20;;;8.90;99.90;;;;;;5085083;28;20044;-75
2023/10/22 08:49:48;;;;;;;0.38;0.20;;;9.00;87.20;;;;;;5085416;28;20437;-80
2023/10/22 08:52:14;;;;;;;0.30;0.30;;;9.20;1.00;;;;;;5085979;28;20059;-75
2023/10/22 08:54:42;;;;;;;0.30;0.30;;;9.20;1.00;;;;;;5102225;28;20488;-77
2023/10/22 08:57:08;;;;;;;0.17;0.17;;;9.30;1.00;;;;;;5083363;28;20048;-78
2023/10/22 08:59:36;;;;;;;0.63;0.30;;;9.40;99.90;;;;;;5101498;28;20139;-78
2023/10/22 09:02:06;;;;;;;0.22;0.20;;;9.50;99.90;;;;;;5084449;28;20043;-77
2023/10/22 09:04:33;;;;;;;0.40;0.20;;;9.60;99.90;;;;;;5101321;28;20060;-78
2023/10/22 09:07:00;;;;;;;0.28;0.20;;;9.80;99.90;;;;;;5084687;28;20131;-77
2023/10/22 09:09:28;;;;;;;0.47;0.30;;;9.90;99.90;;;;;;5084128;28;20408;-77
2023/10/22 09:11:56;;;;;;;0.30;0.30;;;10.00;1.00;;;;;;5083029;28;20109;-77
2023/10/22 09:14:23;;;;;;;0.55;0.30;;;10.20;99.90;;;;;;5091012;28;20055;-77
2023/10/22 09:16:50;;;;;;;0.22;0.20;;;10.30;1.00;;;;;;5091481;28;20051;-77
2023/10/22 09:19:35;;;;;;;0.38;0.32;;;10.40;99.90;;;;;;5081223;28;20147;-77
2023/10/22 09:22:03;;;;;;;0.98;0.22;;;10.60;1.00;;;;;;5087798;28;20048;-78
2023/10/22 09:24:32;;;;;;;0.50;0.40;;;10.70;99.90;;;;;;5063196;28;20545;-77
2023/10/22 09:26:59;;;;;;;0.25;0.25;;;10.80;93.70;;;;;;5082226;28;20419;-77
2023/10/22 09:29:26;;;;;;;0.20;0.20;;;10.90;99.90;;;;;;5063001;28;20048;-77
2023/10/22 09:31:56;;;;;;;0.38;0.30;;;11.00;99.90;;;;;;5067835;28;20333;-76
2023/10/22 09:34:27;;;;;;;0.25;0.25;;;11.10;83.30;;;;;;5082402;28;20123;-77
2023/10/22 09:36:57;;;;;;;0.20;0.20;;;11.20;99.90;;;;;;5099774;28;20048;-76
2023/10/22 09:39:43;;;;;;;0.20;0.20;;;11.30;99.90;;;;;;5065121;28;20663;-76
2023/10/22 09:42:11;;;;;;;0.20;0.20;;;11.40;99.90;;;;;;5068838;28;20477;-76
2023/10/22 09:44:44;;;;;;;0.57;0.30;;;11.50;99.90;;;;;;5068695;28;20051;-77
2023/10/22 09:47:19;;;;;;;0.22;0.20;;;11.50;71.80;;;;;;5084456;28;20411;-77
2023/10/22 09:49:50;;;;;;;0.30;0.30;;;11.60;1.00;;;;;;5084171;28;20052;-77
2023/10/22 09:52:17;;;;;;;0.22;0.20;;;11.70;99.90;;;;;;5101239;28;20467;-76
2023/10/22 09:54:45;;;;;;;0.10;0.10;;;11.80;99.90;;;;;;5082859;28;20097;-77
2023/10/22 09:57:16;;;;;;;0.30;0.30;;;11.80;99.90;;;;;;5067254;28;20104;-76
2023/10/22 09:59:44;;;;;;;0.55;0.25;;;12.00;99.90;;;;;;5083274;28;20040;-77
2023/10/22 10:02:15;;;;;;;0.35;0.30;;;12.00;99.90;;;;;;5102011;28;20052;-76
2023/10/22 10:04:49;;;;;;;0.17;0.17;;;12.10;50.40;;;;;;5100607;28;20469;-76
2023/10/22 10:07:17;;;;;;;0.32;0.30;;;12.20;41.80;;;;;;5100474;28;20472;-77
2023/10/22 10:09:44;;;;;;;0.50;0.30;;;12.20;12.90;;;;;;5090798;28;20155;-77
2023/10/22 10:12:13;;;;;;;0.35;0.20;;;12.30;4.80;;;;;;5081571;28;20392;-77
2023/10/22 10:14:44;;;;;;;0.40;0.20;;;12.30;1.00;;;;;;5087691;28;20486;-77
2023/10/22 10:17:12;;;;;;;0.43;0.38;;;12.30;1.00;;;;;;5104724;28;20109;-76
2023/10/22 10:19:39;;;;;;;0.30;0.30;;;12.40;1.00;;;;;;5070933;28;20424;-76
2023/10/22 10:22:06;;;;;;;0.30;0.30;;;12.50;1.00;;;;;;5087491;28;20397;-76
2023/10/22 10:24:33;;;;;;;0.35;0.30;;;12.50;1.00;;;;;;5069334;28;20051;-76
2023/10/22 10:27:00;;;;;;;0.30;0.30;;;12.70;1.00;;;;;;5066950;28;20408;-76
2023/10/22 10:29:32;;;;;;;0.20;0.20;;;12.70;1.00;;;;;;5085108;28;20067;-78
2023/10/22 10:32:14;;;;;;;0.50;0.35;;;12.80;1.00;;;;;;5054903;28;20306;-77
2023/10/22 10:34:43;;;;;;;1.35;0.40;;;12.90;1.00;;;;;;5102489;28;20048;-78
2023/10/22 10:37:17;;;;;;;0.60;0.30;;;13.00;1.00;;;;;;5083152;28;20047;-77
2023/10/22 10:39:51;;;;;;;0.30;0.30;;;13.00;1.00;;;;;;5079473;28;20517;-77
2023/10/22 10:42:30;;;;;;;0.43;0.30;;;13.00;1.00;;;;;;5087861;28;20113;-76
2023/10/22 10:44:57;;;;;;;1.08;0.40;;;13.10;1.00;;;;;;5103497;28;20055;-76
2023/10/22 10:47:24;;;;;;;0.20;0.20;;;13.20;1.00;;;;;;5106448;28;20047;-79
2023/10/22 10:50:07;;;;;;;0.20;0.20;;;13.30;1.00;;;;;;5105526;28;20116;-73
2023/10/22 10:52:34;;;;;;;0.30;0.30;;;13.30;1.00;;;;;;5087532;28;20078;-74
2023/10/22 10:55:01;;;;;;;0.57;0.38;;;13.30;1.00;;;;;;5105057;28;20493;-74
2023/10/22 10:57:34;;;;;;;0.60;0.40;;;13.30;1.00;;;;;;5090133;28;20556;-74
2023/10/22 11:00:03;;;;;;;0.20;0.20;;;13.40;1.00;;;;;;5091196;28;20055;-74
2023/10/22 11:02:41;;;;;;;0.40;0.30;;;13.50;1.00;;;;;;5074423;28;20528;-74
2023/10/22 11:05:09;;;;;;;0.13;0.13;;;13.60;1.00;;;;;;5090830;28;20051;-75
2023/10/22 11:07:36;;;;;;;0.60;0.35;;;13.80;1.00;;;;;;5073888;28;20047;-76
2023/10/22 11:10:08;;;;;;;0.57;0.32;;;14.00;1.00;;;;;;5073108;28;20120;-75
2023/10/22 11:12:39;;;;;;;0.20;0.20;;;14.10;1.00;;;;;;5090349;28;20051;-75
2023/10/22 11:15:08;;;;;;;0.30;0.30;;;14.10;1.00;;;;;;5090194;28;20444;-75
2023/10/22 11:17:36;;;;;;;0.20;0.20;;;14.30;1.00;;;;;;5074223;28;20373;-89
2023/10/22 11:20:06;;;;;;;0.40;0.30;;;14.50;1.00;;;;;;5091011;28;20189;-75
2023/10/22 11:22:36;;;;;;;0.22;0.22;;;14.60;1.00;;;;;;5106807;28;20059;-75
2023/10/22 11:25:05;;;;;;;0.30;0.30;;;14.70;1.00;;;;;;5073075;28;20288;-74
2023/10/22 11:27:32;;;;;;;0.52;0.30;;;14.80;1.00;;;;;;5090040;28;20557;-76
2023/10/22 11:30:00;;;;;;;0.20;0.20;;;14.90;1.00;;;;;;5107474;28;20043;-76
2023/10/22 11:32:27;;;;;;;0.30;0.28;;;15.00;1.00;;;;;;5090657;28;20116;-75
2023/10/22 11:34:59;;;;;;;0.22;0.22;;;15.10;1.00;;;;;;5090458;28;20120;-76
2023/10/22 11:37:30;;;;;;;0.30;0.30;;;15.30;1.00;;;;;;5090119;28;20386;-78
2023/10/22 11:39:57;;;;;;;0.10;0.10;;;15.40;1.00;;;;;;5107333;28;20055;-77
2023/10/22 11:42:32;;;;;;;0.35;0.32;;;15.60;1.00;;;;;;5089940;28;20048;-81
2023/10/22 11:44:59;;;;;;;0.20;0.20;;;15.80;1.00;;;;;;5073187;28;20075;-82
2023/10/22 11:47:30;;;;;;;0.20;0.20;;;16.00;1.00;;;;;;5090503;28;20047;-80
2023/10/22 11:49:58;;;;;;;0.40;0.40;;;16.30;1.00;;;;;;5075308;28;20052;-84
2023/10/22 11:52:35;;;;;;;0.40;0.30;;;16.40;1.00;;;;;;5087976;28;20512;-88
2023/10/22 11:55:02;;;;;;;0.30;0.30;;;16.60;1.00;;;;;;5108325;28;20052;-86
2023/10/22 11:57:30;;;;;;;0.30;0.20;;;16.60;1.00;;;;;;5106622;28;20051;-80
2023/10/22 11:59:57;;;;;;;0.55;0.32;;;16.80;1.00;;;;;;5093677;28;20071;-79
2023/10/22 12:02:24;;;;;;;0.13;0.13;;;17.00;1.00;;;;;;5073993;28;20058;-80
2023/10/22 12:04:51;;;;;;;0.25;0.25;;;17.10;1.00;;;;;;5089919;28;20120;-80
2023/10/22 12:07:17;;;;;;;0.10;0.10;;;17.30;1.00;;;;;;5100183;28;20552;-80
2023/10/22 12:09:45;;;;;;;0.50;0.20;;;17.50;1.00;;;;;;5068450;28;20124;-81
2023/10/22 12:12:12;;;;;;;0.28;0.28;;;17.60;1.00;;;;;;5073029;28;20047;-80
2023/10/22 12:14:39;;;;;;;0.20;0.20;;;17.80;1.00;;;;;;5072333;28;20047;-80
2023/10/22 12:17:06;;;;;;;0.30;0.13;;;17.90;1.00;;;;;;5107290;28;20585;-81
2023/10/22 12:19:33;;;;;;;0.20;0.20;;;18.00;1.00;;;;;;5072833;28;20058;-80
2023/10/22 12:22:00;;;;;;;0.20;0.20;;;18.20;1.00;;;;;;5072947;28;20047;-81
2023/10/22 12:24:27;;;;;;;0.10;0.10;;;18.60;1.00;;;;;;5105333;28;20297;-80
2023/10/22 12:26:54;;;;;;;0.73;0.15;;;18.90;1.00;;;;;;5071658;28;20043;-80
2023/10/22 12:29:21;;;;;;;0.10;0.10;;;19.10;1.00;;;;;;5107284;28;20098;-80
2023/10/22 12:31:49;;;;;;;0.20;0.20;;;19.30;1.00;;;;;;5088883;28;20048;-77
2023/10/22 12:34:16;;;;;;;0.38;0.20;;;19.50;1.00;;;;;;5075416;28;20656;-84
2023/10/22 12:36:44;;;;;;;0.10;0.10;;;19.80;1.00;;;;;;5075611;28;20069;-88
2023/10/22 12:39:11;;;;;;;0.17;0.17;;;20.10;1.00;;;;;;5109584;28;20063;-86
2023/10/22 12:41:38;;;;;;;0.32;0.30;;;20.40;1.00;;;;;;5091046;28;20427;-86
2023/10/22 12:44:05;;;;;;;0.40;0.20;;;20.30;1.00;;;;;;5070155;28;20470;-86
2023/10/22 12:46:32;;;;;;;0.20;0.20;;;20.30;1.00;;;;;;5071485;28;20090;-87
2023/10/22 12:49:00;;;;;;;0.28;0.28;;;20.30;1.00;;;;;;5071088;28;20051;-87
2023/10/22 12:51:29;;;;;;;0.20;0.10;;;20.40;1.00;;;;;;5074736;28;20582;-85
2023/10/22 12:53:56;;;;;;;0.10;0.10;;;20.20;1.00;;;;;;5073584;28;20127;-86
2023/10/22 12:56:24;;;;;;;0.10;0.10;;;20.20;1.00;;;;;;5091038;28;20047;-87
2023/10/22 12:58:55;;;;;;;0.10;0.10;;;20.20;1.00;;;;;;5074761;28;20137;-85
2023/10/22 13:01:22;;;;;;;0.20;0.20;;;20.40;1.00;;;;;;5092283;28;20044;-84